Terminal Aerodrome Forecast
Issued by NWS Blacksburg, VA

Home | Current Version | Previous Version | Text Only | Print | Product List | Glossary On
Versions: 1 2 3 4 5 6 7 8 9 10 11 12 13 14
000
FTUS41 KRNK 120520
TAFROA
TAF
KROA 120520Z 1206/1306 15005KT P6SM BKN180
     FM120800 24008KT P6SM OVC120
     FM121300 27017G28KT P6SM BKN045
     FM122200 30020G32KT P6SM SCT040
     FM130200 30015G30KT P6SM SKC=

USA.gov is the U.S. government's official web portal to all federal, state and local government web resources and services.